Time;durP1;ratioP1;P1;durP2;ratioP2;P2;SDS_P1;SDS_P2;PMS_P1;PMS_P2;Temp;Humidity;BMP_temperature;BMP_pressure;BME280_temperature;BME280_humidity;BME280_pressure;Samples;Min_cycle;Max_cycle;Signal;HPM_P1;HPM_P2
2023/12/17 00:01:40;;;;;;;0.40;0.40;;;;;;;23.85;58.70;101551.34;7391604;19;20027;-84
2023/12/17 00:04:06;;;;;;;3.42;0.40;;;;;;;23.84;59.30;101549.81;7391198;19;20021;-84
2023/12/17 00:06:35;;;;;;;0.20;0.10;;;;;;;23.62;58.68;101549.94;7390239;19;20013;-85
2023/12/17 00:09:02;;;;;;;0.35;0.30;;;;;;;25.46;52.52;101547.75;7392207;19;20011;-84
2023/12/17 00:11:29;;;;;;;2.17;0.30;;;;;;;24.03;57.45;101545.00;7389066;19;20018;-84
2023/12/17 00:13:55;;;;;;;0.20;0.15;;;;;;;23.44;58.75;101544.84;7389604;19;20465;-84
2023/12/17 00:16:21;;;;;;;1.75;1.17;;;;;;;23.16;59.88;101541.31;7387534;19;20007;-85
2023/12/17 00:18:47;;;;;;;0.10;0.10;;;;;;;22.49;61.07;101544.31;7389603;19;20051;-84
2023/12/17 00:21:13;;;;;;;0.10;0.00;;;;;;;22.63;62.46;101534.75;7392608;19;20519;-84
2023/12/17 00:23:40;;;;;;;0.10;0.10;;;;;;;22.45;61.99;101535.28;7389376;19;20018;-84
2023/12/17 00:26:06;;;;;;;0.20;0.20;;;;;;;24.22;57.98;101521.56;7392582;19;20544;-84
2023/12/17 00:28:32;;;;;;;0.28;0.28;;;;;;;24.19;57.12;101520.56;7393670;19;20363;-84
2023/12/17 00:30:58;;;;;;;0.50;0.10;;;;;;;21.80;63.95;101525.44;7389897;19;20025;-84
2023/12/17 00:33:24;;;;;;;0.10;0.10;;;;;;;22.31;63.40;101513.59;7390306;19;20342;-85
2023/12/17 00:35:50;;;;;;;0.30;0.30;;;;;;;22.28;63.17;101511.03;7390624;19;20050;-84
2023/12/17 00:38:16;;;;;;;0.98;0.63;;;;;;;22.74;62.65;101504.81;7392408;19;20022;-84
2023/12/17 00:40:42;;;;;;;0.22;0.22;;;;;;;23.86;58.39;101507.34;7392166;19;20031;-84
2023/12/17 00:43:08;;;;;;;0.10;0.10;;;;;;;24.43;56.27;101499.91;7390592;19;20003;-84
2023/12/17 00:45:34;;;;;;;0.10;0.10;;;;;;;26.07;54.67;101494.66;7391427;19;20014;-84
2023/12/17 00:48:01;;;;;;;0.35;0.35;;;;;;;23.90;57.03;101493.63;7390496;19;20029;-84
2023/12/17 00:50:27;;;;;;;0.88;0.55;;;;;;;25.13;54.14;101490.31;7389377;19;20014;-84
2023/12/17 00:52:53;;;;;;;0.30;0.05;;;;;;;23.41;58.12;101486.19;7389742;19;20010;-84
2023/12/17 00:55:19;;;;;;;0.32;0.10;;;;;;;24.25;55.83;101478.59;7389685;19;20505;-84
2023/12/17 00:57:45;;;;;;;0.10;0.10;;;;;;;24.02;56.32;101480.81;7391647;19;20011;-83
2023/12/17 01:00:12;;;;;;;0.10;0.00;;;;;;;22.99;58.75;101483.78;7392067;19;20045;-83
2023/12/17 01:02:38;;;;;;;0.10;0.10;;;;;;;23.42;59.07;101473.50;7389554;19;20002;-83
2023/12/17 01:05:05;;;;;;;0.05;0.00;;;;;;;21.90;62.58;101472.84;7389508;19;20014;-83
2023/12/17 01:07:31;;;;;;;0.20;0.20;;;;;;;21.88;63.44;101467.72;7387282;19;20786;-83
2023/12/17 01:09:57;;;;;;;0.13;0.10;;;;;;;22.49;61.77;101464.81;7389384;19;20014;-84
2023/12/17 01:12:23;;;;;;;0.30;0.20;;;;;;;23.66;58.51;101453.69;7388312;19;20468;-83
2023/12/17 01:14:49;;;;;;;0.10;0.00;;;;;;;24.07;56.11;101440.19;7388711;19;20006;-82
2023/12/17 01:17:15;;;;;;;0.20;0.20;;;;;;;25.12;53.88;101437.47;7389728;19;20021;-83
2023/12/17 01:19:41;;;;;;;5.20;0.52;;;;;;;25.30;52.87;101443.16;7389882;19;20022;-83
2023/12/17 01:22:08;;;;;;;0.20;0.20;;;;;;;25.32;52.01;101440.53;7388147;19;20011;-83
2023/12/17 01:24:34;;;;;;;0.30;0.30;;;;;;;25.66;50.99;101446.53;7389930;19;20379;-83
2023/12/17 01:27:00;;;;;;;0.57;0.45;;;;;;;25.16;51.21;101438.69;7388038;19;20077;-83
2023/12/17 01:29:26;;;;;;;0.10;0.00;;;;;;;24.02;53.76;101437.34;7388796;19;20018;-83
2023/12/17 01:31:52;;;;;;;0.10;0.00;;;;;;;23.94;54.45;101427.84;7388836;19;20013;-83
2023/12/17 01:34:20;;;;;;;0.00;0.00;;;;;;;25.70;50.38;101412.75;7387888;19;20010;-84
2023/12/17 01:36:46;;;;;;;0.32;0.20;;;;;;;27.20;47.80;101421.28;7388722;19;20070;-84
2023/12/17 01:39:12;;;;;;;0.10;0.00;;;;;;;26.76;47.25;101409.50;7390430;19;20025;-83
2023/12/17 01:41:38;;;;;;;0.20;0.17;;;;;;;26.58;47.63;101412.44;7388896;19;20017;-85
2023/12/17 01:44:04;;;;;;;0.10;0.10;;;;;;;26.97;46.86;101413.19;7390490;19;20014;-85
2023/12/17 01:46:31;;;;;;;0.13;0.05;;;;;;;25.71;48.43;101413.53;7388886;19;20015;-84
2023/12/17 01:48:58;;;;;;;0.10;0.10;;;;;;;26.52;47.52;101406.84;7389483;19;20014;-84
2023/12/17 01:51:25;;;;;;;0.70;0.13;;;;;;;26.05;47.83;101403.06;7386865;19;20102;-84
2023/12/17 01:53:52;;;;;;;0.10;0.10;;;;;;;25.08;49.84;101397.09;7389060;19;20014;-84
2023/12/17 01:56:19;;;;;;;5.50;0.15;;;;;;;25.38;49.35;101404.13;7385868;19;20023;-83
2023/12/17 01:58:48;;;;;;;0.10;0.00;;;;;;;25.38;49.89;101398.41;7390299;19;20015;-84
2023/12/17 02:01:14;;;;;;;0.00;0.00;;;;;;;25.85;49.26;101395.88;7388694;19;20069;-83
2023/12/17 02:03:40;;;;;;;0.95;0.10;;;;;;;27.25;46.75;101397.47;7388451;19;20070;-84
2023/12/17 02:06:10;;;;;;;0.10;0.03;;;;;;;27.01;46.80;101396.47;7387432;19;20045;-84
2023/12/17 02:08:36;;;;;;;0.20;0.20;;;;;;;26.41;47.95;101401.34;7389051;19;20025;-83
2023/12/17 02:11:03;;;;;;;0.10;0.00;;;;;;;26.54;47.39;101392.78;7386539;19;20039;-84
2023/12/17 02:13:29;;;;;;;0.03;0.00;;;;;;;27.02;46.65;101398.00;7388057;19;20046;-84
2023/12/17 02:15:55;;;;;;;0.10;0.00;;;;;;;26.28;47.53;101404.19;7387682;19;20356;-84
2023/12/17 02:18:21;;;;;;;0.30;0.22;;;;;;;27.12;46.34;101388.94;7386591;19;20014;-84
2023/12/17 02:20:47;;;;;;;0.35;0.35;;;;;;;26.68;46.60;101391.44;7389413;19;20414;-83
2023/12/17 02:23:13;;;;;;;2.70;0.10;;;;;;;28.05;45.20;101388.75;7387029;19;20017;-84
2023/12/17 02:25:39;;;;;;;0.10;0.00;;;;;;;29.10;43.40;101388.59;7388325;19;20003;-84
2023/12/17 02:28:05;;;;;;;2.83;0.20;;;;;;;29.57;41.68;101391.00;7388461;19;20027;-84
2023/12/17 02:30:31;;;;;;;0.30;0.10;;;;;;;29.87;41.15;101382.41;7387334;19;20009;-83
2023/12/17 02:32:58;;;;;;;0.10;0.00;;;;;;;31.05;39.90;101389.06;7387760;19;20010;-83
2023/12/17 02:35:25;;;;;;;0.70;0.20;;;;;;;30.75;38.83;101392.06;7388823;19;20015;-84
2023/12/17 02:37:51;;;;;;;0.10;0.00;;;;;;;30.81;38.64;101383.97;7388672;19;20394;-84
2023/12/17 02:40:17;;;;;;;0.22;0.05;;;;;;;28.95;41.27;101384.88;7386392;19;20446;-83
2023/12/17 02:42:44;;;;;;;0.03;0.00;;;;;;;31.25;38.22;101388.00;7395104;19;20017;-84
2023/12/17 02:45:11;;;;;;;0.00;0.00;;;;;;;30.04;39.06;101378.22;7395030;19;20437;-83
2023/12/17 02:47:38;;;;;;;0.20;0.00;;;;;;;29.59;39.35;101381.81;7392417;19;20082;-84
2023/12/17 02:50:05;;;;;;;0.30;0.10;;;;;;;31.23;37.42;101382.03;7395742;19;20009;-83
2023/12/17 02:52:31;;;;;;;0.00;0.00;;;;;;;31.16;37.70;101385.75;7395158;19;20018;-84
2023/12/17 02:54:57;;;;;;;0.95;0.30;;;;;;;30.79;38.16;101380.91;7396291;19;20016;-84
2023/12/17 02:57:25;;;;;;;0.10;0.00;;;;;;;28.93;39.75;101378.97;7394342;19;20014;-84
2023/12/17 02:59:54;;;;;;;0.22;0.10;;;;;;;26.82;42.60;101378.69;7395284;19;20018;-84
2023/12/17 03:02:20;;;;;;;0.25;0.25;;;;;;;28.23;41.62;101375.50;7391600;19;20015;-83
2023/12/17 03:04:47;;;;;;;0.30;0.30;;;;;;;28.41;40.44;101366.63;7393602;19;20002;-84
2023/12/17 03:07:14;;;;;;;3.13;0.20;;;;;;;26.47;43.57;101366.94;7393637;19;20007;-84
2023/12/17 03:09:41;;;;;;;1.48;0.10;;;;;;;26.04;44.48;101362.31;7393966;19;20014;-84
2023/12/17 03:12:07;;;;;;;0.20;0.20;;;;;;;25.26;46.01;101357.13;7393557;19;20019;-84
2023/12/17 03:14:33;;;;;;;0.30;0.30;;;;;;;25.31;46.31;101364.84;7392197;19;20377;-83
2023/12/17 03:17:00;;;;;;;0.30;0.30;;;;;;;25.28;46.76;101363.06;7391782;19;20007;-84
2023/12/17 03:19:26;;;;;;;0.10;0.10;;;;;;;25.90;46.27;101357.13;7393107;19;20483;-83
2023/12/17 03:21:52;;;;;;;1.00;0.35;;;;;;;25.34;46.74;101345.84;7392260;19;20025;-84
2023/12/17 03:24:18;;;;;;;0.10;0.05;;;;;;;25.81;46.25;101354.69;7392348;19;20323;-83
2023/12/17 03:26:44;;;;;;;0.38;0.20;;;;;;;23.20;50.23;101354.97;7391489;19;20010;-83
2023/12/17 03:29:10;;;;;;;0.10;0.10;;;;;;;23.05;51.88;101350.94;7393606;19;20490;-84
2023/12/17 03:31:36;;;;;;;1.10;0.70;;;;;;;24.01;51.57;101342.66;7391095;19;20350;-84
2023/12/17 03:34:05;;;;;;;1.98;0.20;;;;;;;22.93;52.28;101329.59;7392026;19;20010;-83
2023/12/17 03:36:31;;;;;;;1.27;0.57;;;;;;;23.29;52.45;101336.84;7391221;19;20018;-84
2023/12/17 03:38:57;;;;;;;1.23;0.43;;;;;;;22.45;55.62;101333.69;7394038;19;20025;-83
2023/12/17 03:41:25;;;;;;;3.78;0.77;;;;;;;23.12;54.41;101313.44;7391794;19;20019;-84
2023/12/17 03:43:56;;;;;;;0.52;0.30;;;;;;;24.47;52.11;101304.59;7393240;19;20014;-83
2023/12/17 03:46:24;;;;;;;0.80;0.40;;;;;;;22.31;54.87;101317.75;7392325;19;20274;-84
2023/12/17 03:48:50;;;;;;;1.48;0.40;;;;;;;24.09;51.35;101309.47;7393166;19;20011;-84
2023/12/17 03:51:17;;;;;;;0.20;0.20;;;;;;;21.72;57.13;101306.03;7391059;19;20003;-83
2023/12/17 03:53:44;;;;;;;1.75;0.40;;;;;;;23.31;54.36;101308.63;7389527;19;20011;-83
2023/12/17 03:56:11;;;;;;;0.43;0.25;;;;;;;22.88;55.81;101305.59;7391957;19;20014;-83
2023/12/17 03:58:38;;;;;;;0.20;0.10;;;;;;;21.85;58.29;101306.28;7391994;19;20052;-83
2023/12/17 04:01:05;;;;;;;0.10;0.10;;;;;;;21.96;58.96;101306.25;7390306;19;20011;-83
2023/12/17 04:03:45;;;;;;;0.28;0.15;;;;;;;21.98;59.31;101289.50;7393562;19;20015;-83
2023/12/17 04:06:11;;;;;;;0.10;0.00;;;;;;;23.60;55.52;101288.00;7391587;19;20081;-90
2023/12/17 04:08:37;;;;;;;0.10;0.10;;;;;;;24.10;54.36;101282.53;7388620;19;20029;-89
2023/12/17 04:11:04;;;;;;;0.35;0.35;;;;;;;24.76;52.31;101289.47;7392257;19;20011;-89
2023/12/17 04:13:30;;;;;;;1.05;0.20;;;;;;;25.07;51.27;101270.88;7393534;19;20078;-88
2023/12/17 04:15:56;;;;;;;0.38;0.25;;;;;;;24.74;51.36;101274.19;7393525;19;20006;-89
2023/12/17 04:18:22;;;;;;;0.90;0.30;;;;;;;24.75;51.43;101267.22;7391721;19;20010;-90
2023/12/17 04:20:48;;;;;;;0.20;0.20;;;;;;;25.78;49.00;101268.06;7392150;19;20013;-89
2023/12/17 04:23:15;;;;;;;0.00;0.00;;;;;;;25.07;49.96;101272.94;7391467;19;20056;-89
2023/12/17 04:25:41;;;;;;;0.30;0.13;;;;;;;25.33;49.20;101256.69;7392842;19;20070;-89
2023/12/17 04:28:07;;;;;;;0.13;0.10;;;;;;;24.76;50.12;101241.03;7393206;19;20362;-88
2023/12/17 04:30:33;;;;;;;4.40;0.88;;;;;;;25.54;49.08;101256.84;7391370;19;20006;-89
2023/12/17 04:32:59;;;;;;;1.13;0.40;;;;;;;25.89;48.34;101249.94;7392959;19;20082;-89
2023/12/17 04:35:26;;;;;;;0.13;0.13;;;;;;;24.85;49.71;101245.56;7391621;19;20510;-89
2023/12/17 04:37:52;;;;;;;0.05;0.05;;;;;;;24.97;50.25;101249.75;7391917;19;20014;-89
2023/12/17 04:40:18;;;;;;;0.20;0.10;;;;;;;26.41;48.38;101241.34;7391997;19;20404;-89
2023/12/17 04:42:45;;;;;;;0.10;0.00;;;;;;;24.85;49.81;101237.00;7391551;19;20010;-89
2023/12/17 04:45:11;;;;;;;0.20;0.10;;;;;;;26.24;47.39;101235.22;7390201;19;20013;-89
2023/12/17 04:47:38;;;;;;;0.10;0.00;;;;;;;26.21;46.61;101233.47;7389530;19;20014;-89
2023/12/17 04:50:05;;;;;;;0.20;0.10;;;;;;;25.67;47.81;101230.41;7392240;19;20035;-89
2023/12/17 04:52:31;;;;;;;0.10;0.10;;;;;;;25.78;47.61;101230.19;7391562;19;20031;-89
2023/12/17 04:54:57;;;;;;;0.10;0.00;;;;;;;25.68;47.81;101220.53;7392837;19;20496;-89
2023/12/17 04:57:23;;;;;;;0.10;0.00;;;;;;;26.36;46.64;101222.22;7391201;19;20026;-89
2023/12/17 04:59:49;;;;;;;0.10;0.10;;;;;;;25.65;47.56;101218.78;7395040;19;20018;-89
2023/12/17 05:02:15;;;;;;;1.33;0.17;;;;;;;25.05;48.19;101232.78;7390939;19;19999;-89
2023/12/17 05:04:41;;;;;;;0.25;0.10;;;;;;;24.24;49.54;101234.22;7390536;19;20004;-89
2023/12/17 05:07:07;;;;;;;0.10;0.00;;;;;;;22.89;52.90;101224.00;7389845;19;20006;-89
2023/12/17 05:09:33;;;;;;;0.52;0.30;;;;;;;22.69;53.61;101213.03;7392131;19;20018;-89
2023/12/17 05:12:00;;;;;;;0.20;0.20;;;;;;;22.52;54.39;101218.81;7391002;19;20003;-88
2023/12/17 05:14:26;;;;;;;0.40;0.32;;;;;;;22.18;55.77;101201.16;7391706;19;20061;-88
2023/12/17 05:16:52;;;;;;;0.20;0.20;;;;;;;22.80;55.05;101201.59;7390013;19;20010;-88
2023/12/17 05:19:19;;;;;;;0.20;0.20;;;;;;;23.29;53.39;101194.69;7391148;19;20361;-88
2023/12/17 05:21:45;;;;;;;0.75;0.47;;;;;;;23.71;51.56;101198.91;7392473;19;20003;-88
2023/12/17 05:24:11;;;;;;;0.20;0.20;;;;;;;26.35;47.47;101197.09;7392597;19;20029;-89
2023/12/17 05:26:37;;;;;;;1.38;0.20;;;;;;;28.92;42.53;101188.09;7390219;19;20079;-88
2023/12/17 05:29:03;;;;;;;0.20;0.20;;;;;;;26.09;45.97;101186.50;7392612;19;20465;-89
2023/12/17 05:31:29;;;;;;;0.10;0.10;;;;;;;26.71;45.01;101198.03;7390844;19;20011;-89
2023/12/17 05:33:55;;;;;;;0.22;0.10;;;;;;;24.24;48.90;101197.22;7392132;19;20036;-89
2023/12/17 05:36:21;;;;;;;0.15;0.15;;;;;;;24.33;49.39;101202.53;7388682;19;20018;-89
2023/12/17 05:38:47;;;;;;;2.35;0.47;;;;;;;23.47;51.14;101207.47;7390683;19;20491;-89
2023/12/17 05:41:13;;;;;;;0.40;0.40;;;;;;;25.46;47.84;101205.38;7391611;19;20009;-89
2023/12/17 05:43:40;;;;;;;0.00;0.00;;;;;;;31.14;41.86;101207.09;7389405;19;20343;-89
2023/12/17 05:46:06;;;;;;;0.40;0.20;;;;;;;38.38;30.23;101185.00;7391524;19;20021;-89
2023/12/17 05:48:32;;;;;;;0.03;0.03;;;;;;;30.56;35.46;101201.91;7391141;19;20480;-89
2023/12/17 05:50:58;;;;;;;0.95;0.45;;;;;;;27.95;38.85;101195.78;7391293;19;20010;-88
2023/12/17 05:53:24;;;;;;;2.60;0.75;;;;;;;25.80;42.40;101199.78;7390406;19;20055;-89
2023/12/17 05:55:51;;;;;;;1.45;0.52;;;;;;;24.99;45.03;101212.16;7391772;19;20540;-89
2023/12/17 05:58:17;;;;;;;0.10;0.03;;;;;;;25.16;44.51;101210.59;7389593;19;20017;-84
2023/12/17 06:00:43;;;;;;;0.10;0.10;;;;;;;23.67;47.94;101199.19;7389873;19;20022;-92
2023/12/17 06:03:09;;;;;;;4.90;0.90;;;;;;;22.94;49.40;101204.03;7388174;19;20039;-88
2023/12/17 06:05:35;;;;;;;4.00;0.60;;;;;;;22.61;50.91;101196.53;7387930;19;20011;-88
2023/12/17 06:08:02;;;;;;;0.68;0.35;;;;;;;22.90;50.94;101202.78;7388692;19;20011;-88
2023/12/17 06:10:28;;;;;;;0.10;0.03;;;;;;;24.54;47.62;101194.97;7389096;19;20007;-88
2023/12/17 06:12:54;;;;;;;0.10;0.00;;;;;;;23.94;48.62;101200.97;7389661;19;20002;-88
2023/12/17 06:15:20;;;;;;;0.00;0.00;;;;;;;26.00;45.80;101195.47;7388148;19;20010;-88
2023/12/17 06:17:46;;;;;;;0.05;0.00;;;;;;;24.90;46.94;101189.78;7374688;19;20494;-88
2023/12/17 06:20:13;;;;;;;0.35;0.35;;;;;;;23.89;47.97;101201.78;7397387;19;20470;-87
2023/12/17 06:22:40;;;;;;;0.10;0.10;;;;;;;23.14;49.70;101202.84;7396208;19;20006;-88
2023/12/17 06:25:06;;;;;;;0.10;0.10;;;;;;;23.42;49.98;101206.22;7397181;19;20062;-88
2023/12/17 06:27:34;;;;;;;0.10;0.00;;;;;;;23.39;49.45;101190.19;7396075;19;20032;-88
2023/12/17 06:30:00;;;;;;;0.70;0.20;;;;;;;23.44;50.00;101200.75;7395580;19;20181;-88
2023/12/17 06:32:26;;;;;;;0.63;0.63;;;;;;;22.76;51.38;101196.16;7394093;19;20010;-88
2023/12/17 06:34:52;;;;;;;0.20;0.20;;;;;;;22.77;51.47;101196.94;7392420;19;20074;-80
2023/12/17 06:37:18;;;;;;;0.10;0.00;;;;;;;27.05;45.12;101184.47;7391309;19;20010;-80
2023/12/17 06:39:45;;;;;;;1.05;0.30;;;;;;;26.61;43.84;101182.69;7393047;19;20066;-79
2023/12/17 06:42:11;;;;;;;0.57;0.20;;;;;;;25.69;45.49;101176.41;7393814;19;20612;-80
2023/12/17 06:44:37;;;;;;;0.43;0.30;;;;;;;23.24;48.91;101184.13;7393619;19;20028;-80
2023/12/17 06:47:04;;;;;;;0.10;0.10;;;;;;;22.83;50.21;101192.00;7391696;19;20018;-81
2023/12/17 06:49:30;;;;;;;0.10;0.10;;;;;;;25.17;47.11;101189.28;7393353;19;20010;-81
2023/12/17 06:51:56;;;;;;;0.20;0.00;;;;;;;23.28;49.35;101187.47;7393381;19;20041;-81
2023/12/17 06:54:22;;;;;;;0.40;0.40;;;;;;;24.86;47.44;101181.56;7393601;19;20015;-80
2023/12/17 06:56:48;;;;;;;0.10;0.10;;;;;;;26.41;44.46;101189.91;7392036;19;20413;-80
2023/12/17 06:59:14;;;;;;;0.57;0.30;;;;;;;25.28;46.16;101205.44;7393259;19;20011;-81
2023/12/17 07:01:41;;;;;;;1.35;0.68;;;;;;;24.96;45.99;101199.78;7390859;19;20010;-80
2023/12/17 07:20:08;;;;;;;0.10;0.10;;;;;;;28.93;41.53;101198.25;7395070;19;20011;-58
2023/12/17 07:22:42;;;;;;;1.00;0.20;;;;;;;24.41;46.19;101201.38;7401387;19;20011;-57
2023/12/17 07:25:14;;;;;;;0.45;0.45;;;;;;;24.26;47.14;101198.22;7395639;19;20010;-56
2023/12/17 07:27:43;;;;;;;0.10;0.10;;;;;;;24.72;45.88;101194.19;7395468;19;20017;-56
2023/12/17 07:30:13;;;;;;;0.80;0.47;;;;;;;25.98;44.29;101186.69;7395958;19;20006;-56
2023/12/17 07:32:42;;;;;;;;;;;;;;;24.94;45.67;101193.84;7396116;19;20022;-56
2023/12/17 07:35:14;;;;;;;0.20;0.20;;;;;;;24.87;45.87;101185.94;7396595;19;20224;-57
2023/12/17 07:37:44;;;;;;;26.95;0.98;;;;;;;26.68;43.15;101197.06;7398995;19;20018;-56
2023/12/17 07:40:11;;;;;;;1.20;0.55;;;;;;;28.36;40.50;101184.16;7396585;19;20011;-56
2023/12/17 07:42:41;;;;;;;0.20;0.20;;;;;;;29.01;39.40;101193.25;7396008;19;20033;-56
2023/12/17 07:45:10;;;;;;;0.10;0.00;;;;;;;28.31;39.41;101199.41;7396320;19;20015;-56
2023/12/17 07:47:41;;;;;;;1.38;0.40;;;;;;;24.84;43.64;101206.94;7396540;19;20261;-56
2023/12/17 07:50:12;;;;;;;0.20;0.17;;;;;;;24.42;44.41;101205.00;7397410;19;20014;-56
2023/12/17 07:52:41;;;;;;;0.20;0.10;;;;;;;23.80;45.59;101196.47;7398544;19;20026;-56
2023/12/17 07:55:15;;;;;;;0.40;0.20;;;;;;;24.07;45.23;101194.63;7397142;19;20034;-56
2023/12/17 07:57:44;;;;;;;1.40;0.47;;;;;;;23.57;46.30;101189.50;7397112;19;20027;-57
2023/12/17 08:00:13;;;;;;;0.10;0.10;;;;;;;24.19;45.63;101198.09;7397620;19;20052;-56
2023/12/17 08:02:43;;;;;;;0.10;0.10;;;;;;;24.64;45.11;101204.69;7398924;19;20090;-57
2023/12/17 08:05:11;;;;;;;0.28;0.10;;;;;;;24.07;45.44;101195.38;7399152;19;20048;-57
2023/12/17 08:07:41;;;;;;;3.42;0.40;;;;;;;23.74;45.56;101195.00;7398276;19;20015;-56
2023/12/17 08:10:17;;;;;;;0.10;0.10;;;;;;;25.71;43.70;101199.47;7400738;19;20010;-57
2023/12/17 08:12:46;;;;;;;0.98;0.40;;;;;;;25.11;44.07;101200.03;7396748;19;20010;-56
2023/12/17 08:15:14;;;;;;;1.60;0.77;;;;;;;24.45;45.51;101203.94;7399638;19;20010;-56
2023/12/17 08:17:46;;;;;;;5.22;0.95;;;;;;;24.69;44.90;101200.94;7396403;19;20014;-56
2023/12/17 08:20:18;;;;;;;0.10;0.10;;;;;;;25.53;44.21;101204.72;7395842;19;20014;-56
2023/12/17 08:22:49;;;;;;;1.35;0.45;;;;;;;23.41;46.15;101187.63;7395597;19;20115;-56
2023/12/17 08:25:18;;;;;;;0.28;0.10;;;;;;;27.30;41.76;101187.72;7397375;19;20029;-56
2023/12/17 08:27:46;;;;;;;1.35;0.90;;;;;;;26.53;41.61;101185.47;7395073;19;20090;-56
2023/12/17 08:30:14;;;;;;;0.55;0.55;;;;;;;24.92;44.10;101185.06;7395146;19;20078;-56
2023/12/17 08:32:42;;;;;;;0.90;0.30;;;;;;;25.04;43.47;101186.41;7396044;19;20015;-56
2023/12/17 08:35:14;;;;;;;0.52;0.40;;;;;;;24.57;43.61;101185.34;7396509;19;20011;-56
2023/12/17 08:37:43;;;;;;;0.05;0.00;;;;;;;23.07;46.43;101189.19;7394397;19;20017;-56
2023/12/17 08:40:11;;;;;;;1.13;0.63;;;;;;;27.44;42.02;101183.47;7393552;19;20052;-56
2023/12/17 08:42:41;;;;;;;4.20;0.32;;;;;;;30.08;37.13;101186.81;7396116;19;20010;-56
2023/12/17 08:45:12;;;;;;;0.10;0.00;;;;;;;27.78;38.64;101192.66;7395373;19;20100;-56
2023/12/17 08:47:42;;;;;;;0.10;0.10;;;;;;;28.59;39.38;101192.81;7393926;19;20011;-56
2023/12/17 08:50:11;;;;;;;0.10;0.10;;;;;;;27.43;40.17;101197.03;7394600;19;20010;-57
2023/12/17 08:52:44;;;;;;;14.05;0.38;;;;;;;28.42;39.03;101190.47;7392521;19;20018;-57
2023/12/17 08:55:14;;;;;;;0.10;0.00;;;;;;;29.99;37.20;101196.03;7394851;19;20066;-57
2023/12/17 08:57:45;;;;;;;0.17;0.17;;;;;;;35.09;32.25;101189.28;7393979;19;20019;-58
2023/12/17 09:00:16;;;;;;;4.57;0.63;;;;;;;31.89;33.58;101196.97;7392647;19;20010;-57
2023/12/17 09:02:48;;;;;;;1.10;0.63;;;;;;;29.16;36.37;101201.91;7393890;19;20019;-57
2023/12/17 09:05:24;;;;;;;0.65;0.63;;;;;;;26.61;39.84;101202.72;7396626;19;20022;-57
2023/12/17 09:08:02;;;;;;;0.10;0.10;;;;;;;26.66;39.66;101193.25;7395072;19;20336;-56
2023/12/17 09:10:31;;;;;;;0.30;0.20;;;;;;;27.10;40.06;101197.09;7392232;19;20014;-56
2023/12/17 09:13:03;;;;;;;1.45;0.85;;;;;;;29.64;37.52;101199.94;7393744;19;20335;-57
2023/12/17 09:15:51;;;;;;;0.30;0.10;;;;;;;29.66;36.27;101203.75;7396515;19;20021;-57
2023/12/17 09:18:49;;;;;;;0.10;0.10;;;;;;;35.31;31.64;101187.94;7397097;19;20347;-56
2023/12/17 09:21:31;;;;;;;0.00;0.00;;;;;;;36.79;29.44;101189.88;7393817;19;20026;-56
2023/12/17 09:24:01;;;;;;;0.10;0.10;;;;;;;38.11;27.40;101182.72;7394021;19;20014;-57
2023/12/17 09:26:33;;;;;;;0.40;0.35;;;;;;;38.27;27.19;101185.84;7391734;19;20010;-57
2023/12/17 09:29:03;;;;;;;0.10;0.00;;;;;;;37.75;26.68;101183.47;7397310;19;20025;-58
2023/12/17 09:31:51;;;;;;;0.20;0.20;;;;;;;37.75;26.38;101181.31;7390580;19;20013;-56
2023/12/17 09:34:30;;;;;;;0.57;0.52;;;;;;;38.58;26.16;101175.22;7392502;19;20462;-56
2023/12/17 09:37:00;;;;;;;3.60;0.30;;;;;;;38.41;25.69;101178.66;7391983;19;20396;-56
2023/12/17 09:39:29;;;;;;;1.65;0.43;;;;;;;38.55;25.45;101176.50;7393757;19;20532;-56
2023/12/17 09:41:59;;;;;;;5.88;0.47;;;;;;;38.74;25.34;101183.38;7396550;19;20034;-56
2023/12/17 09:44:28;;;;;;;4.93;0.45;;;;;;;38.96;25.02;101188.28;7393457;19;20010;-56
2023/12/17 09:46:58;;;;;;;0.10;0.10;;;;;;;41.22;23.36;101173.28;7393761;19;20011;-58
2023/12/17 09:49:27;;;;;;;0.10;0.03;;;;;;;41.47;22.99;101172.97;7391900;19;20007;-59
2023/12/17 09:52:13;;;;;;;0.40;0.40;;;;;;;42.25;22.39;101163.84;7393317;19;20035;-59
2023/12/17 09:55:42;;;;;;;1.38;0.20;;;;;;;45.50;20.54;101155.03;7392304;19;20767;-59
2023/12/17 09:59:01;;;;;;;0.50;0.35;;;;;;;46.60;19.17;101138.56;7393650;19;20007;-59
2023/12/17 10:01:52;;;;;;;0.22;0.20;;;;;;;46.63;19.11;101140.84;7391328;19;20383;-59
2023/12/17 10:04:34;;;;;;;1.95;0.75;;;;;;;46.86;18.81;101142.81;7392143;19;20019;-59
2023/12/17 10:07:43;;;;;;;0.10;0.10;;;;;;;46.38;18.41;101144.72;7390592;19;20047;-59
2023/12/17 10:10:31;;;;;;;2.45;0.47;;;;;;;45.32;19.12;101139.81;7390662;19;20374;-59
2023/12/17 10:14:05;;;;;;;2.05;0.43;;;;;;;32.35;27.20;101151.03;7396732;19;20372;-59
2023/12/17 10:17:39;;;;;;;0.57;0.32;;;;;;;27.28;33.31;101167.50;7391174;19;20056;-58
2023/12/17 10:20:36;;;;;;;0.05;0.00;;;;;;;26.25;35.64;101188.19;7390930;19;20006;-59
2023/12/17 10:24:03;;;;;;;4.60;0.60;;;;;;;26.09;36.69;101190.13;7395233;19;20045;-59
2023/12/17 10:27:30;;;;;;;2.47;0.35;;;;;;;26.67;36.28;101189.03;7391085;19;20047;-59
2023/12/17 10:30:41;;;;;;;2.70;0.65;;;;;;;25.94;38.07;101181.34;7390261;19;20352;-59
2023/12/17 10:33:36;;;;;;;0.80;0.30;;;;;;;25.99;38.50;101191.09;7391725;19;20074;-59
2023/12/17 10:37:22;;;;;;;1.50;0.73;;;;;;;25.84;38.93;101188.03;7390699;19;20437;-59
2023/12/17 10:40:20;;;;;;;3.40;0.55;;;;;;;25.72;39.82;101175.31;7391130;19;20046;-58
2023/12/17 10:43:22;;;;;;;0.95;0.40;;;;;;;25.56;39.72;101182.88;7394587;19;20011;-59
2023/12/17 10:46:34;;;;;;;0.10;0.10;;;;;;;29.39;37.53;101176.81;7390648;19;20011;-58
2023/12/17 10:49:23;;;;;;;1.02;0.47;;;;;;;37.33;27.69;101158.41;7390617;19;20016;-58
2023/12/17 10:52:14;;;;;;;0.70;0.47;;;;;;;26.20;38.06;101183.41;7392496;19;20018;-59
2023/12/17 10:55:23;;;;;;;0.30;0.20;;;;;;;29.07;36.00;101177.38;7389393;19;20023;-59
2023/12/17 10:58:24;;;;;;;1.25;0.73;;;;;;;26.23;38.65;101176.56;7390615;19;20002;-59
2023/12/17 11:01:03;;;;;;;0.95;0.10;;;;;;;26.22;39.05;101183.59;7392149;19;20010;-59
2023/12/17 11:03:55;;;;;;;0.10;0.10;;;;;;;26.27;39.44;101182.69;7401882;19;20507;-58
2023/12/17 11:06:42;;;;;;;0.40;0.40;;;;;;;26.15;39.18;101178.56;7398270;19;20007;-59
2023/12/17 11:09:32;;;;;;;;;;;;;;;;;;;;;
2023/12/17 11:12:10;;;;;;;0.75;0.55;;;;;;;26.20;39.87;101180.53;7398928;19;20010;-59
2023/12/17 11:14:45;;;;;;;7.50;0.65;;;;;;;26.62;39.82;101187.84;7399993;19;20244;-59
2023/12/17 11:17:24;;;;;;;2.58;0.43;;;;;;;26.61;39.74;101177.75;7397346;19;20015;-59
2023/12/17 11:22:49;;;;;;;0.20;0.10;;;;;;;26.46;39.83;101171.88;7400680;19;20014;-59
2023/12/17 11:25:41;;;;;;;0.32;0.30;;;;;;;26.52;40.47;101160.31;7398621;19;20010;-59
2023/12/17 11:28:27;;;;;;;0.10;0.10;;;;;;;26.57;40.36;101171.63;7398370;19;20014;-59
2023/12/17 11:31:04;;;;;;;0.30;0.22;;;;;;;26.61;40.02;101166.34;7396342;19;20027;-59
2023/12/17 11:33:34;;;;;;;5.78;0.30;;;;;;;26.31;40.59;101168.88;7397070;19;20014;-61
2023/12/17 11:36:09;;;;;;;6.05;0.68;;;;;;;26.39;40.77;101169.72;7398330;19;20359;-59
2023/12/17 11:38:59;;;;;;;0.40;0.30;;;;;;;26.47;40.65;101164.06;7400193;19;20013;-60
2023/12/17 11:41:47;;;;;;;0.10;0.00;;;;;;;26.43;40.75;101158.69;7396457;19;20014;-59
2023/12/17 11:44:31;;;;;;;0.10;0.10;;;;;;;26.46;40.67;101146.16;7397370;19;20017;-59
2023/12/17 11:47:17;;;;;;;3.85;0.65;;;;;;;25.24;41.27;101145.09;7397331;19;20029;-59
2023/12/17 11:49:58;;;;;;;2.55;1.05;;;;;;;20.81;51.65;101149.19;7395826;19;20078;-59
2023/12/17 11:52:33;;;;;;;1.15;0.85;;;;;;;20.03;58.91;101156.78;7398750;19;20043;-59
2023/12/17 11:55:17;;;;;;;0.52;0.38;;;;;;;19.29;68.87;101156.94;7396717;19;20041;-59
2023/12/17 11:57:46;;;;;;;5.93;0.40;;;;;;;19.50;71.61;101154.75;7398355;19;20038;-59
2023/12/17 12:00:16;;;;;;;0.20;0.10;;;;;;;18.76;73.16;101162.44;7398050;19;20011;-59
2023/12/17 12:02:47;;;;;;;2.60;0.55;;;;;;;17.71;91.77;101166.97;7401904;19;20031;-59
2023/12/17 12:05:41;;;;;;;7.57;1.33;;;;;;;19.73;78.44;101161.31;7397317;19;20367;-59
2023/12/17 12:08:18;;;;;;;0.50;0.10;;;;;;;20.01;76.19;101165.00;7398960;19;20018;-56